createdAt,value
2023-01-17T00:02:14.097Z,8.29
2023-01-17T00:05:01.205Z,8.29
2023-01-17T00:07:49.020Z,8.27
2023-01-17T00:10:20.153Z,8.25
2023-01-17T00:12:59.604Z,8.25
2023-01-17T00:15:29.132Z,8.27
2023-01-17T00:17:57.899Z,8.29
2023-01-17T00:20:47.404Z,8.30
2023-01-17T00:23:40.918Z,8.32
2023-01-17T00:26:20.061Z,8.35
2023-01-17T00:28:48.857Z,8.38
2023-01-17T00:31:17.364Z,8.42
2023-01-17T00:33:45.509Z,8.45
2023-01-17T00:36:13.796Z,8.50
2023-01-17T00:38:41.977Z,8.53
2023-01-17T00:41:12.811Z,8.56
2023-01-17T00:44:00.190Z,8.57
2023-01-17T00:46:47.079Z,8.56
2023-01-17T00:49:33.533Z,8.57
2023-01-17T00:52:20.121Z,8.58
2023-01-17T00:55:07.450Z,8.57
2023-01-17T00:57:54.199Z,8.54
2023-01-17T01:00:40.993Z,8.51
2023-01-17T01:03:29.196Z,8.49
2023-01-17T01:06:16.516Z,8.47
2023-01-17T01:09:03.301Z,8.45
2023-01-17T01:11:50.122Z,8.44
2023-01-17T01:14:37.015Z,8.42
2023-01-17T01:17:24.353Z,8.39
2023-01-17T01:20:11.489Z,8.38
2023-01-17T01:22:58.448Z,8.37
2023-01-17T01:25:44.874Z,8.34
2023-01-17T01:28:33.393Z,8.33
2023-01-17T01:31:22.187Z,8.32
2023-01-17T01:33:51.973Z,8.30
2023-01-17T01:36:21.307Z,8.29
2023-01-17T01:38:50.526Z,8.28
2023-01-17T01:41:18.643Z,8.27
2023-01-17T01:43:47.992Z,8.26
2023-01-17T01:46:40.037Z,8.25
2023-01-17T01:49:25.541Z,8.23
2023-01-17T01:52:01.298Z,8.21
2023-01-17T01:54:44.819Z,8.20
2023-01-17T01:57:18.338Z,8.19
2023-01-17T01:59:52.332Z,8.18
2023-01-17T02:02:20.916Z,8.17
2023-01-17T02:04:49.918Z,8.16
2023-01-17T02:07:25.680Z,8.15
2023-01-17T02:09:54.915Z,8.13
2023-01-17T02:12:23.758Z,8.11
2023-01-17T02:14:51.741Z,8.10
2023-01-17T02:17:34.873Z,8.08
2023-01-17T02:20:12.251Z,8.09
2023-01-17T02:23:08.680Z,8.08
2023-01-17T02:26:15.433Z,8.05
2023-01-17T02:29:07.447Z,8.04
2023-01-17T02:31:51.649Z,8.03
2023-01-17T02:34:30.721Z,8.03
2023-01-17T02:37:06.372Z,8.03
2023-01-17T02:39:45.921Z,8.03
2023-01-17T02:42:17.471Z,8.02
2023-01-17T02:44:45.946Z,8.01
2023-01-17T02:47:23.517Z,8.00
2023-01-17T02:50:00.542Z,7.98
2023-01-17T02:52:41.106Z,7.97
2023-01-17T02:55:23.893Z,7.94
2023-01-17T02:58:04.275Z,7.93
2023-01-17T03:00:55.063Z,7.92
2023-01-17T03:03:38.472Z,7.93
2023-01-17T03:06:15.365Z,7.93
2023-01-17T03:08:46.386Z,7.93
2023-01-17T03:11:14.979Z,7.93
2023-01-17T03:13:43.476Z,7.93
2023-01-17T03:16:19.892Z,7.92
2023-01-17T03:18:49.364Z,7.91
2023-01-17T03:21:17.730Z,7.91
2023-01-17T03:23:45.806Z,7.89
2023-01-17T03:26:14.286Z,7.89
2023-01-17T03:28:42.534Z,7.88
2023-01-17T03:31:15.245Z,7.88
2023-01-17T03:33:43.655Z,7.87
2023-01-17T03:36:12.530Z,7.85
2023-01-17T03:38:40.721Z,7.85
2023-01-17T03:41:08.955Z,7.84
2023-01-17T03:43:37.014Z,7.83
2023-01-17T03:46:07.930Z,7.84
2023-01-17T03:48:35.977Z,7.84
2023-01-17T03:51:04.167Z,7.83
2023-01-17T03:53:32.145Z,7.83
2023-01-17T03:56:01.134Z,7.83
2023-01-17T03:58:29.113Z,7.83
2023-01-17T04:00:57.527Z,7.84
2023-01-17T04:03:25.572Z,7.85
2023-01-17T04:05:53.650Z,7.86
2023-01-17T04:08:21.818Z,7.86
2023-01-17T04:10:50.206Z,7.87
2023-01-17T04:13:18.516Z,7.87
2023-01-17T04:15:50.181Z,7.87
2023-01-17T04:18:20.684Z,7.89
2023-01-17T04:20:49.162Z,7.89
2023-01-17T04:23:17.651Z,7.90
2023-01-17T04:25:45.745Z,7.91
2023-01-17T04:28:14.215Z,7.92
2023-01-17T04:30:42.257Z,7.93
2023-01-17T04:33:10.262Z,7.94
2023-01-17T04:35:38.442Z,7.95
2023-01-17T04:38:06.419Z,7.96
2023-01-17T04:40:34.802Z,7.97
2023-01-17T04:43:02.984Z,7.98
2023-01-17T04:45:31.183Z,7.99
2023-01-17T04:48:05.108Z,7.99
2023-01-17T04:50:33.815Z,7.97
2023-01-17T04:53:01.943Z,7.97
2023-01-17T04:55:30.014Z,7.97
2023-01-17T04:57:57.988Z,7.97
2023-01-17T05:00:26.099Z,7.96
2023-01-17T05:02:54.472Z,7.96
2023-01-17T05:05:22.529Z,7.96
2023-01-17T05:07:57.988Z,7.96
2023-01-17T05:10:26.550Z,7.98
2023-01-17T05:12:59.358Z,7.99
2023-01-17T05:15:28.040Z,8.02
2023-01-17T05:17:56.559Z,8.05
2023-01-17T05:20:26.841Z,8.09
2023-01-17T05:22:56.917Z,8.13
2023-01-17T05:25:27.603Z,8.16
2023-01-17T05:27:56.640Z,8.19
2023-01-17T05:30:24.672Z,8.22
2023-01-17T05:32:55.929Z,8.27
2023-01-17T05:35:28.506Z,8.30
2023-01-17T05:37:56.777Z,8.35
2023-01-17T05:40:30.879Z,8.40
2023-01-17T05:43:01.019Z,8.43
2023-01-17T05:45:31.247Z,8.45
2023-01-17T05:47:59.418Z,8.47
2023-01-17T05:50:32.545Z,8.48
2023-01-17T05:53:07.279Z,8.49
2023-01-17T05:55:36.444Z,8.49
2023-01-17T05:58:05.286Z,8.50
2023-01-17T06:00:33.524Z,8.49
2023-01-17T06:03:01.599Z,8.49
2023-01-17T06:05:30.596Z,8.49
2023-01-17T06:07:58.564Z,8.49
2023-01-17T06:10:28.357Z,8.48
2023-01-17T06:13:11.028Z,8.46
2023-01-17T06:15:40.237Z,8.44
2023-01-17T06:18:13.964Z,8.42
2023-01-17T06:20:43.156Z,8.40
2023-01-17T06:23:13.527Z,8.37
2023-01-17T06:25:44.079Z,8.34
2023-01-17T06:28:14.826Z,8.32
2023-01-17T06:30:44.041Z,8.30
2023-01-17T06:33:13.009Z,8.29
2023-01-17T06:35:47.668Z,8.28
2023-01-17T06:38:15.812Z,8.28
2023-01-17T06:40:44.191Z,8.28
2023-01-17T06:43:12.267Z,8.27
2023-01-17T06:45:40.447Z,8.25
2023-01-17T06:48:08.825Z,8.24
2023-01-17T06:50:36.999Z,8.22
2023-01-17T06:53:07.324Z,8.21
2023-01-17T06:55:40.445Z,8.19
2023-01-17T06:58:09.574Z,8.17
2023-01-17T07:00:40.518Z,8.17
2023-01-17T07:03:20.534Z,8.16
2023-01-17T07:05:49.323Z,8.15
2023-01-17T07:08:19.023Z,8.15
2023-01-17T07:10:48.126Z,8.15
2023-01-17T07:13:16.195Z,8.15
2023-01-17T07:15:44.191Z,8.15
2023-01-17T07:18:12.558Z,8.13
2023-01-17T07:20:43.964Z,8.12
2023-01-17T07:23:13.103Z,8.12
2023-01-17T07:25:41.181Z,8.11
2023-01-17T07:28:09.462Z,8.11
2023-01-17T07:30:37.752Z,8.12
2023-01-17T07:33:05.693Z,8.13
2023-01-17T07:35:34.212Z,8.14
2023-01-17T07:38:02.996Z,8.14
2023-01-17T07:40:34.947Z,8.14
2023-01-17T07:43:16.850Z,8.15
2023-01-17T07:45:49.561Z,8.16
2023-01-17T07:48:23.768Z,8.18
2023-01-17T07:50:56.252Z,8.20
2023-01-17T07:53:27.111Z,8.21
2023-01-17T07:55:55.872Z,8.25
2023-01-17T07:58:23.933Z,8.30
2023-01-17T08:00:52.304Z,8.35
2023-01-17T08:03:20.507Z,8.39
2023-01-17T08:05:58.201Z,8.44
2023-01-17T08:08:26.888Z,8.49
2023-01-17T08:10:55.070Z,8.56
2023-01-17T08:13:23.651Z,8.62
2023-01-17T08:15:52.243Z,8.66
2023-01-17T08:18:20.191Z,8.71
2023-01-17T08:20:48.193Z,8.76
2023-01-17T08:23:16.216Z,8.84
2023-01-17T08:25:44.231Z,8.92
2023-01-17T08:28:12.819Z,9.01
2023-01-17T08:30:41.005Z,9.10
2023-01-17T08:33:08.977Z,9.17
2023-01-17T08:35:37.061Z,9.25
2023-01-17T08:38:05.127Z,9.31
2023-01-17T08:40:33.690Z,9.34
2023-01-17T08:43:02.109Z,9.39
2023-01-17T08:45:30.228Z,9.41
2023-01-17T08:47:59.174Z,9.43
2023-01-17T08:50:27.475Z,9.44
2023-01-17T08:53:01.056Z,9.44
2023-01-17T08:55:29.548Z,9.44
2023-01-17T08:57:57.628Z,9.43
2023-01-17T09:00:27.454Z,9.42
2023-01-17T09:02:55.620Z,9.41
2023-01-17T09:05:23.585Z,9.40
2023-01-17T09:07:51.672Z,9.40
2023-01-17T09:10:19.850Z,9.40
2023-01-17T09:12:48.136Z,9.40
2023-01-17T09:15:20.405Z,9.40
2023-01-17T09:17:48.479Z,9.41
2023-01-17T09:20:17.071Z,9.42
2023-01-17T09:22:46.115Z,9.42
2023-01-17T09:25:14.651Z,9.43
2023-01-17T09:27:47.337Z,9.43
2023-01-17T09:30:15.829Z,9.44
2023-01-17T09:32:43.793Z,9.45
2023-01-17T09:35:11.969Z,9.45
2023-01-17T09:37:40.259Z,9.45
2023-01-17T09:40:17.197Z,9.45
2023-01-17T09:42:46.124Z,9.45
2023-01-17T09:45:18.351Z,9.46
2023-01-17T09:47:53.045Z,9.47
2023-01-17T09:50:25.918Z,9.48
2023-01-17T09:53:01.443Z,9.49
2023-01-17T09:55:37.426Z,9.50
2023-01-17T09:58:22.590Z,9.52
2023-01-17T10:01:13.150Z,9.56
2023-01-17T10:03:52.982Z,9.61
2023-01-17T10:06:36.856Z,9.66
2023-01-17T10:09:16.080Z,9.70
2023-01-17T10:12:14.558Z,9.76
2023-01-17T10:14:56.749Z,9.83
2023-01-17T10:17:36.409Z,9.88
2023-01-17T10:20:13.778Z,9.95
2023-01-17T10:23:00.302Z,10.00
2023-01-17T10:25:45.749Z,10.07
2023-01-17T10:28:26.920Z,10.13
2023-01-17T10:31:01.249Z,10.18
2023-01-17T10:33:35.860Z,10.23
2023-01-17T10:36:27.182Z,10.26
2023-01-17T10:39:00.153Z,10.30
2023-01-17T10:41:34.340Z,10.33
2023-01-17T10:44:17.605Z,10.35
2023-01-17T10:46:53.653Z,10.37
2023-01-17T10:49:24.911Z,10.39
2023-01-17T10:52:00.767Z,10.41
2023-01-17T10:54:51.559Z,10.41
2023-01-17T10:57:24.773Z,10.43
2023-01-17T10:59:55.897Z,10.45
2023-01-17T11:02:39.998Z,10.46
2023-01-17T11:05:21.830Z,10.47
2023-01-17T11:08:08.757Z,10.48
2023-01-17T11:10:42.752Z,10.50
2023-01-17T11:13:32.176Z,10.50
2023-01-17T11:16:07.686Z,10.52
2023-01-17T11:18:39.472Z,10.54
2023-01-17T11:21:16.613Z,10.56
2023-01-17T11:23:51.037Z,10.58
2023-01-17T11:26:27.616Z,10.62
2023-01-17T11:29:37.089Z,10.67
2023-01-17T11:32:32.264Z,10.72
2023-01-17T11:35:05.907Z,10.79
2023-01-17T11:37:36.243Z,10.84
2023-01-17T11:40:13.626Z,10.90
2023-01-17T11:42:41.710Z,10.96
2023-01-17T11:45:24.114Z,11.00
2023-01-17T11:48:12.860Z,11.06
2023-01-17T11:50:56.663Z,11.11
2023-01-17T11:53:24.777Z,11.15
2023-01-17T11:56:07.092Z,11.19
2023-01-17T11:58:38.076Z,11.22
2023-01-17T12:01:58.270Z,11.23
2023-01-17T12:04:36.479Z,11.24
2023-01-17T12:07:19.917Z,11.23
2023-01-17T12:10:00.276Z,11.22
2023-01-17T12:12:56.181Z,11.21
2023-01-17T12:15:44.147Z,11.19
2023-01-17T12:18:24.671Z,11.18
2023-01-17T12:21:17.516Z,11.17
2023-01-17T12:24:21.501Z,11.15
2023-01-17T12:26:52.751Z,11.13
2023-01-17T12:29:42.216Z,11.11
2023-01-17T12:32:48.059Z,11.09
2023-01-17T12:35:26.053Z,11.07
2023-01-17T12:38:05.116Z,11.04
2023-01-17T12:40:50.867Z,11.03
2023-01-17T12:43:29.584Z,11.03
2023-01-17T12:46:00.837Z,11.02
2023-01-17T12:48:35.298Z,11.02
2023-01-17T12:51:19.809Z,11.02
2023-01-17T12:53:56.621Z,11.03
2023-01-17T12:56:29.464Z,11.04
2023-01-17T12:59:36.017Z,11.06
2023-01-17T13:02:18.558Z,11.06
2023-01-17T13:04:58.870Z,11.08
2023-01-17T13:07:39.552Z,11.09
2023-01-17T13:10:07.619Z,11.11
2023-01-17T13:12:38.780Z,11.15
2023-01-17T13:15:17.528Z,11.19
2023-01-17T13:17:51.889Z,11.24
2023-01-17T13:20:29.090Z,11.29
2023-01-17T13:23:09.145Z,11.34
2023-01-17T13:25:44.632Z,11.39
2023-01-17T13:28:46.021Z,11.43
2023-01-17T13:31:36.969Z,11.50
2023-01-17T13:34:42.040Z,11.55
2023-01-17T13:37:25.266Z,11.58
2023-01-17T13:40:29.521Z,11.60
2023-01-17T13:43:01.182Z,11.67
2023-01-17T13:45:34.873Z,11.73
2023-01-17T13:48:12.196Z,11.79
2023-01-17T13:50:47.596Z,11.85
2023-01-17T13:53:34.258Z,11.90
2023-01-17T13:56:22.418Z,11.92
2023-01-17T13:58:52.029Z,11.94
2023-01-17T14:01:23.303Z,11.94
2023-01-17T14:04:03.767Z,11.94
2023-01-17T14:06:36.550Z,11.93
2023-01-17T14:09:07.861Z,11.94
2023-01-17T14:11:49.746Z,11.94
2023-01-17T14:14:36.131Z,11.93
2023-01-17T14:17:16.248Z,11.93
2023-01-17T14:19:50.711Z,11.92
2023-01-17T14:22:18.678Z,11.91
2023-01-17T14:24:59.240Z,11.91
2023-01-17T14:27:30.693Z,11.92
2023-01-17T14:30:00.236Z,11.95
2023-01-17T14:32:35.562Z,11.96
2023-01-17T14:35:04.738Z,12.00
2023-01-17T14:37:32.728Z,12.02
2023-01-17T14:40:01.911Z,12.03
2023-01-17T14:42:31.802Z,12.05
2023-01-17T14:45:13.738Z,12.06
2023-01-17T14:47:45.187Z,12.09
2023-01-17T14:50:23.714Z,12.10
2023-01-17T14:53:12.773Z,12.11
2023-01-17T14:55:56.593Z,12.12
2023-01-17T14:58:39.497Z,12.11
2023-01-17T15:01:17.458Z,12.10
2023-01-17T15:03:54.465Z,12.09
2023-01-17T15:06:24.309Z,12.08
2023-01-17T15:08:54.474Z,12.05
2023-01-17T15:11:35.512Z,12.02
2023-01-17T15:14:06.021Z,12.00
2023-01-17T15:16:38.539Z,11.97
2023-01-17T15:19:14.677Z,11.94
2023-01-17T15:21:45.846Z,11.90
2023-01-17T15:24:28.771Z,11.87
2023-01-17T15:26:56.912Z,11.84
2023-01-17T15:29:28.159Z,11.81
2023-01-17T15:32:05.959Z,11.79
2023-01-17T15:34:37.884Z,11.76
2023-01-17T15:37:19.816Z,11.73
2023-01-17T15:39:48.301Z,11.68
2023-01-17T15:42:31.411Z,11.64
2023-01-17T15:45:03.269Z,11.58
2023-01-17T15:47:34.418Z,11.53
2023-01-17T15:50:27.963Z,11.48
2023-01-17T15:53:05.753Z,11.43
2023-01-17T15:55:36.830Z,11.39
2023-01-17T15:58:23.050Z,11.35
2023-01-17T16:00:51.230Z,11.30
2023-01-17T16:03:30.940Z,11.27
2023-01-17T16:06:01.228Z,11.23
2023-01-17T16:08:38.773Z,11.19
2023-01-17T16:11:10.711Z,11.15
2023-01-17T16:13:39.362Z,11.12
2023-01-17T16:16:20.417Z,11.09
2023-01-17T16:18:49.899Z,11.05
2023-01-17T16:21:21.347Z,11.01
2023-01-17T16:23:49.530Z,10.99
2023-01-17T16:26:17.811Z,10.96
2023-01-17T16:28:46.500Z,10.96
2023-01-17T16:31:15.556Z,10.92
2023-01-17T16:33:44.130Z,10.89
2023-01-17T16:36:14.873Z,10.84
2023-01-17T16:38:45.863Z,10.81
2023-01-17T16:41:13.961Z,10.78
2023-01-17T16:43:42.014Z,10.76
2023-01-17T16:46:12.394Z,10.74
2023-01-17T16:48:40.430Z,10.72
2023-01-17T16:51:08.816Z,10.71
2023-01-17T16:53:37.708Z,10.70
2023-01-17T16:56:10.158Z,10.70
2023-01-17T16:58:38.463Z,10.69
2023-01-17T17:01:15.929Z,10.69
2023-01-17T17:03:44.347Z,10.70
2023-01-17T17:06:13.547Z,10.73
2023-01-17T17:08:41.818Z,10.72
2023-01-17T17:11:14.415Z,10.73
2023-01-17T17:13:47.520Z,10.73
2023-01-17T17:16:26.745Z,10.73
2023-01-17T17:19:01.355Z,10.75
2023-01-17T17:21:31.299Z,10.77
2023-01-17T17:24:01.097Z,10.78
2023-01-17T17:26:35.581Z,10.77
2023-01-17T17:29:05.335Z,10.75
2023-01-17T17:31:33.731Z,10.74
2023-01-17T17:34:03.118Z,10.72
2023-01-17T17:36:31.611Z,10.70
2023-01-17T17:39:01.925Z,10.68
2023-01-17T17:41:32.590Z,10.66
2023-01-17T17:44:02.383Z,10.66
2023-01-17T17:46:31.217Z,10.63
2023-01-17T17:49:00.271Z,10.60
2023-01-17T17:51:36.472Z,10.58
2023-01-17T17:54:11.350Z,10.56
2023-01-17T17:56:40.662Z,10.54
2023-01-17T17:59:09.583Z,10.52
2023-01-17T18:01:41.084Z,10.49
2023-01-17T18:04:10.145Z,10.48
2023-01-17T18:06:39.432Z,10.46
2023-01-17T18:09:09.845Z,10.45
2023-01-17T18:11:40.206Z,10.44
2023-01-17T18:14:11.136Z,10.42
2023-01-17T18:16:42.644Z,10.41
2023-01-17T18:19:23.753Z,10.40
2023-01-17T18:21:52.413Z,10.39
2023-01-17T18:24:22.869Z,10.37
2023-01-17T18:26:53.031Z,10.35
2023-01-17T18:29:22.203Z,10.34
2023-01-17T18:31:51.912Z,10.32
2023-01-17T18:34:29.040Z,10.29
2023-01-17T18:36:57.595Z,10.28
2023-01-17T18:39:28.281Z,10.26
2023-01-17T18:41:57.119Z,10.25
2023-01-17T18:44:27.461Z,10.23
2023-01-17T18:46:58.222Z,10.20
2023-01-17T18:49:26.359Z,10.18
2023-01-17T18:51:54.427Z,10.17
2023-01-17T18:54:22.395Z,10.16
2023-01-17T18:56:51.204Z,10.15
2023-01-17T18:59:19.700Z,10.14
2023-01-17T19:01:48.153Z,10.12
2023-01-17T19:04:17.518Z,10.11
2023-01-17T19:06:47.470Z,10.08
2023-01-17T19:09:16.281Z,10.06
2023-01-17T19:11:45.248Z,10.04
2023-01-17T19:14:14.532Z,10.03
2023-01-17T19:16:43.347Z,10.01
2023-01-17T19:19:14.617Z,10.00
2023-01-17T19:21:42.917Z,9.97
2023-01-17T19:24:13.436Z,9.95
2023-01-17T19:26:42.850Z,9.94
2023-01-17T19:29:10.863Z,9.93
2023-01-17T19:31:42.762Z,9.92
2023-01-17T19:34:14.213Z,9.90
2023-01-17T19:36:43.004Z,9.88
2023-01-17T19:39:11.121Z,9.87
2023-01-17T19:41:44.815Z,9.86
2023-01-17T19:44:14.488Z,9.84
2023-01-17T19:46:44.248Z,9.84
2023-01-17T19:49:12.652Z,9.83
2023-01-17T19:51:40.911Z,9.83
2023-01-17T19:54:09.196Z,9.83
2023-01-17T19:56:37.476Z,9.83
2023-01-17T19:59:07.385Z,9.82
2023-01-17T20:01:35.505Z,9.82
2023-01-17T20:04:04.023Z,9.82
2023-01-17T20:06:35.511Z,9.81
2023-01-17T20:09:05.655Z,9.80
2023-01-17T20:11:34.133Z,9.80
2023-01-17T20:14:03.115Z,9.78
2023-01-17T20:16:32.367Z,9.77
2023-01-17T20:19:02.821Z,9.75
2023-01-17T20:21:31.862Z,9.71
2023-01-17T20:24:03.372Z,9.68
2023-01-17T20:26:35.201Z,9.65
2023-01-17T20:29:10.028Z,9.64
2023-01-17T20:31:40.738Z,9.63
2023-01-17T20:34:11.641Z,9.64
2023-01-17T20:36:42.269Z,9.65
2023-01-17T20:39:13.900Z,9.67
2023-01-17T20:41:44.731Z,9.70
2023-01-17T20:44:15.404Z,9.76
2023-01-17T20:46:43.976Z,9.82
2023-01-17T20:49:15.332Z,9.91
2023-01-17T20:51:44.877Z,9.96
2023-01-17T20:54:16.295Z,10.02
2023-01-17T20:56:47.413Z,10.07
2023-01-17T20:59:18.436Z,10.10
2023-01-17T21:01:47.027Z,10.11
2023-01-17T21:04:16.859Z,10.11
2023-01-17T21:06:45.735Z,10.10
2023-01-17T21:09:15.380Z,10.09
2023-01-17T21:11:43.434Z,10.08
2023-01-17T21:14:11.493Z,10.06
2023-01-17T21:16:39.848Z,10.04
2023-01-17T21:19:12.160Z,10.01
2023-01-17T21:21:40.451Z,9.99
2023-01-17T21:24:09.016Z,9.99
2023-01-17T21:26:39.002Z,9.97
2023-01-17T21:29:07.425Z,9.95
2023-01-17T21:31:36.896Z,9.92
2023-01-17T21:34:07.598Z,9.88
2023-01-17T21:36:38.305Z,9.84
2023-01-17T21:39:10.583Z,9.82
2023-01-17T21:41:41.182Z,9.82
2023-01-17T21:44:20.850Z,9.83
2023-01-17T21:46:49.555Z,9.82
2023-01-17T21:49:18.024Z,9.80
2023-01-17T21:51:54.897Z,9.78
2023-01-17T21:54:43.797Z,9.78
2023-01-17T21:57:32.045Z,9.77
2023-01-17T22:00:00.283Z,9.76
2023-01-17T22:02:28.511Z,9.73
2023-01-17T22:04:56.734Z,9.72
2023-01-17T22:07:27.109Z,9.71
2023-01-17T22:09:56.882Z,9.71
2023-01-17T22:12:25.247Z,9.71
2023-01-17T22:14:53.654Z,9.69
2023-01-17T22:17:21.907Z,9.69
2023-01-17T22:19:50.006Z,9.69
2023-01-17T22:22:18.253Z,9.68
2023-01-17T22:24:46.191Z,9.67
2023-01-17T22:27:14.367Z,9.67
2023-01-17T22:29:42.406Z,9.68
2023-01-17T22:32:10.799Z,9.68
2023-01-17T22:34:38.778Z,9.69
2023-01-17T22:37:10.230Z,9.70
2023-01-17T22:39:39.332Z,9.73
2023-01-17T22:42:08.410Z,9.74
2023-01-17T22:44:36.417Z,9.77
2023-01-17T22:47:04.888Z,9.79
2023-01-17T22:49:32.960Z,9.82
2023-01-17T22:52:01.039Z,9.84
2023-01-17T22:54:29.313Z,9.88
2023-01-17T22:56:58.930Z,9.91
2023-01-17T22:59:26.979Z,9.95
2023-01-17T23:01:55.390Z,9.98
2023-01-17T23:04:23.466Z,9.99
2023-01-17T23:06:52.068Z,9.97
2023-01-17T23:09:20.446Z,9.96
2023-01-17T23:11:52.752Z,9.94
2023-01-17T23:14:23.340Z,9.93
2023-01-17T23:17:21.924Z,9.92
2023-01-17T23:19:52.573Z,9.89
2023-01-17T23:22:26.946Z,9.87
2023-01-17T23:24:57.809Z,9.86
2023-01-17T23:27:53.413Z,9.85
2023-01-17T23:30:34.661Z,9.82
2023-01-17T23:33:11.068Z,9.80
2023-01-17T23:35:42.219Z,9.78
2023-01-17T23:38:30.749Z,9.77
2023-01-17T23:41:26.360Z,9.76
2023-01-17T23:43:58.724Z,9.74
2023-01-17T23:46:28.686Z,9.73
2023-01-17T23:48:56.740Z,9.72
2023-01-17T23:51:24.758Z,9.70
2023-01-17T23:53:57.577Z,9.69
2023-01-17T23:56:25.791Z,9.68
2023-01-17T23:58:53.873Z,9.67
